sensor_id;sensor_type;location;lat;lon;timestamp;P1;durP1;ratioP1;P2;durP2;ratioP2
9438;SDS011;5176;42.622;25.386;2023-03-14T00:01:23;5.37;;;4.00;;
9438;SDS011;5176;42.622;25.386;2023-03-14T00:03:52;8.73;;;4.33;;
9438;SDS011;5176;42.622;25.386;2023-03-14T00:06:21;5.37;;;3.60;;
9438;SDS011;5176;42.622;25.386;2023-03-14T00:08:50;5.00;;;3.73;;
9438;SDS011;5176;42.622;25.386;2023-03-14T00:11:22;5.30;;;3.90;;
9438;SDS011;5176;42.622;25.386;2023-03-14T00:13:50;8.57;;;5.47;;
9438;SDS011;5176;42.622;25.386;2023-03-14T00:16:22;8.27;;;6.53;;
9438;SDS011;5176;42.622;25.386;2023-03-14T00:18:51;9.40;;;6.47;;
9438;SDS011;5176;42.622;25.386;2023-03-14T00:21:19;10.70;;;7.10;;
9438;SDS011;5176;42.622;25.386;2023-03-14T00:23:48;12.77;;;8.57;;
9438;SDS011;5176;42.622;25.386;2023-03-14T00:26:17;14.30;;;9.30;;
9438;SDS011;5176;42.622;25.386;2023-03-14T00:28:50;15.07;;;10.67;;
9438;SDS011;5176;42.622;25.386;2023-03-14T00:31:20;8.60;;;6.90;;
9438;SDS011;5176;42.622;25.386;2023-03-14T00:33:51;9.83;;;6.27;;
9438;SDS011;5176;42.622;25.386;2023-03-14T00:36:20;8.07;;;6.47;;
9438;SDS011;5176;42.622;25.386;2023-03-14T00:38:50;7.60;;;6.53;;
9438;SDS011;5176;42.622;25.386;2023-03-14T00:41:20;8.03;;;6.27;;
9438;SDS011;5176;42.622;25.386;2023-03-14T00:43:52;8.37;;;6.83;;
9438;SDS011;5176;42.622;25.386;2023-03-14T00:46:21;8.60;;;6.37;;
9438;SDS011;5176;42.622;25.386;2023-03-14T00:48:50;8.30;;;7.03;;
9438;SDS011;5176;42.622;25.386;2023-03-14T00:51:19;9.83;;;7.97;;
9438;SDS011;5176;42.622;25.386;2023-03-14T00:53:47;10.37;;;8.33;;
9438;SDS011;5176;42.622;25.386;2023-03-14T00:56:17;11.13;;;7.60;;
9438;SDS011;5176;42.622;25.386;2023-03-14T00:58:45;9.83;;;6.90;;
9438;SDS011;5176;42.622;25.386;2023-03-14T01:01:17;8.87;;;6.67;;
9438;SDS011;5176;42.622;25.386;2023-03-14T01:03:46;7.83;;;6.67;;
9438;SDS011;5176;42.622;25.386;2023-03-14T01:06:21;8.40;;;6.40;;
9438;SDS011;5176;42.622;25.386;2023-03-14T01:08:52;10.53;;;8.33;;
9438;SDS011;5176;42.622;25.386;2023-03-14T01:11:22;10.23;;;8.00;;
9438;SDS011;5176;42.622;25.386;2023-03-14T01:13:51;11.80;;;8.30;;
9438;SDS011;5176;42.622;25.386;2023-03-14T01:16:22;9.87;;;8.53;;
9438;SDS011;5176;42.622;25.386;2023-03-14T01:18:53;10.53;;;7.57;;
9438;SDS011;5176;42.622;25.386;2023-03-14T01:21:23;8.73;;;7.53;;
9438;SDS011;5176;42.622;25.386;2023-03-14T01:23:53;12.73;;;8.37;;
9438;SDS011;5176;42.622;25.386;2023-03-14T01:26:23;12.27;;;8.70;;
9438;SDS011;5176;42.622;25.386;2023-03-14T01:28:54;9.00;;;8.10;;
9438;SDS011;5176;42.622;25.386;2023-03-14T01:31:25;9.27;;;8.00;;
9438;SDS011;5176;42.622;25.386;2023-03-14T01:33:54;9.03;;;7.30;;
9438;SDS011;5176;42.622;25.386;2023-03-14T01:36:24;7.43;;;6.40;;
9438;SDS011;5176;42.622;25.386;2023-03-14T01:38:53;6.77;;;5.40;;
9438;SDS011;5176;42.622;25.386;2023-03-14T01:41:23;6.87;;;5.40;;
9438;SDS011;5176;42.622;25.386;2023-03-14T01:43:53;7.87;;;5.87;;
9438;SDS011;5176;42.622;25.386;2023-03-14T01:46:26;6.90;;;5.70;;
9438;SDS011;5176;42.622;25.386;2023-03-14T01:49:00;5.13;;;4.63;;
9438;SDS011;5176;42.622;25.386;2023-03-14T01:51:34;6.57;;;5.57;;
9438;SDS011;5176;42.622;25.386;2023-03-14T01:54:10;7.03;;;5.23;;
9438;SDS011;5176;42.622;25.386;2023-03-14T01:56:43;7.70;;;6.47;;
9438;SDS011;5176;42.622;25.386;2023-03-14T01:59:18;10.67;;;8.87;;
9438;SDS011;5176;42.622;25.386;2023-03-14T02:01:48;15.83;;;11.03;;
9438;SDS011;5176;42.622;25.386;2023-03-14T02:04:19;11.23;;;9.40;;
9438;SDS011;5176;42.622;25.386;2023-03-14T02:06:50;13.10;;;8.93;;
9438;SDS011;5176;42.622;25.386;2023-03-14T02:09:21;10.97;;;9.03;;
9438;SDS011;5176;42.622;25.386;2023-03-14T02:11:50;11.03;;;8.33;;
9438;SDS011;5176;42.622;25.386;2023-03-14T02:14:26;12.17;;;9.13;;
9438;SDS011;5176;42.622;25.386;2023-03-14T02:17:02;13.83;;;10.57;;
9438;SDS011;5176;42.622;25.386;2023-03-14T02:19:38;14.53;;;10.83;;
9438;SDS011;5176;42.622;25.386;2023-03-14T02:22:22;12.73;;;9.97;;
9438;SDS011;5176;42.622;25.386;2023-03-14T02:24:54;11.63;;;9.70;;
9438;SDS011;5176;42.622;25.386;2023-03-14T02:27:30;10.10;;;8.33;;
9438;SDS011;5176;42.622;25.386;2023-03-14T02:29:59;8.97;;;7.70;;
9438;SDS011;5176;42.622;25.386;2023-03-14T02:32:32;11.07;;;8.30;;
9438;SDS011;5176;42.622;25.386;2023-03-14T02:35:05;10.73;;;8.30;;
9438;SDS011;5176;42.622;25.386;2023-03-14T02:37:38;8.87;;;7.53;;
9438;SDS011;5176;42.622;25.386;2023-03-14T02:40:11;10.33;;;8.07;;
9438;SDS011;5176;42.622;25.386;2023-03-14T02:42:41;10.20;;;7.77;;
9438;SDS011;5176;42.622;25.386;2023-03-14T02:48:11;9.33;;;5.83;;
9438;SDS011;5176;42.622;25.386;2023-03-14T02:50:43;7.37;;;5.20;;
9438;SDS011;5176;42.622;25.386;2023-03-14T02:53:15;6.00;;;4.77;;
9438;SDS011;5176;42.622;25.386;2023-03-14T02:55:46;8.03;;;5.50;;
9438;SDS011;5176;42.622;25.386;2023-03-14T02:58:17;8.30;;;5.27;;
9438;SDS011;5176;42.622;25.386;2023-03-14T03:00:47;7.43;;;5.17;;
9438;SDS011;5176;42.622;25.386;2023-03-14T03:03:16;8.23;;;5.80;;
9438;SDS011;5176;42.622;25.386;2023-03-14T03:05:47;7.77;;;6.03;;
9438;SDS011;5176;42.622;25.386;2023-03-14T03:08:17;6.10;;;5.03;;
9438;SDS011;5176;42.622;25.386;2023-03-14T03:10:46;6.73;;;5.13;;
9438;SDS011;5176;42.622;25.386;2023-03-14T03:13:14;5.93;;;5.30;;
9438;SDS011;5176;42.622;25.386;2023-03-14T03:15:45;6.40;;;5.40;;
9438;SDS011;5176;42.622;25.386;2023-03-14T03:18:14;5.20;;;4.70;;
9438;SDS011;5176;42.622;25.386;2023-03-14T03:20:43;5.60;;;5.00;;
9438;SDS011;5176;42.622;25.386;2023-03-14T03:23:12;5.83;;;4.60;;
9438;SDS011;5176;42.622;25.386;2023-03-14T03:25:41;4.60;;;4.20;;
9438;SDS011;5176;42.622;25.386;2023-03-14T03:28:10;6.30;;;5.20;;
9438;SDS011;5176;42.622;25.386;2023-03-14T03:30:40;6.47;;;5.20;;
9438;SDS011;5176;42.622;25.386;2023-03-14T03:33:09;7.97;;;5.13;;
9438;SDS011;5176;42.622;25.386;2023-03-14T03:35:42;7.13;;;4.80;;
9438;SDS011;5176;42.622;25.386;2023-03-14T03:38:12;4.93;;;4.43;;
9438;SDS011;5176;42.622;25.386;2023-03-14T03:40:41;4.80;;;4.07;;
9438;SDS011;5176;42.622;25.386;2023-03-14T03:43:11;9.13;;;5.60;;
9438;SDS011;5176;42.622;25.386;2023-03-14T03:45:41;8.03;;;6.00;;
9438;SDS011;5176;42.622;25.386;2023-03-14T03:48:10;8.43;;;6.53;;
9438;SDS011;5176;42.622;25.386;2023-03-14T03:50:43;9.37;;;6.67;;
9438;SDS011;5176;42.622;25.386;2023-03-14T03:53:13;8.93;;;7.37;;
9438;SDS011;5176;42.622;25.386;2023-03-14T03:55:41;12.47;;;9.03;;
9438;SDS011;5176;42.622;25.386;2023-03-14T03:58:11;10.43;;;8.63;;
9438;SDS011;5176;42.622;25.386;2023-03-14T04:00:41;12.23;;;9.37;;
9438;SDS011;5176;42.622;25.386;2023-03-14T04:03:10;13.67;;;10.33;;
9438;SDS011;5176;42.622;25.386;2023-03-14T04:05:39;14.67;;;10.13;;
9438;SDS011;5176;42.622;25.386;2023-03-14T04:08:08;17.33;;;11.30;;
9438;SDS011;5176;42.622;25.386;2023-03-14T04:10:37;15.77;;;10.23;;
9438;SDS011;5176;42.622;25.386;2023-03-14T04:13:05;13.50;;;9.40;;
9438;SDS011;5176;42.622;25.386;2023-03-14T04:15:34;13.00;;;9.50;;
9438;SDS011;5176;42.622;25.386;2023-03-14T04:18:05;10.47;;;9.27;;
9438;SDS011;5176;42.622;25.386;2023-03-14T04:20:34;12.70;;;10.07;;
9438;SDS011;5176;42.622;25.386;2023-03-14T04:23:03;13.80;;;10.87;;
9438;SDS011;5176;42.622;25.386;2023-03-14T04:25:32;13.53;;;10.60;;
9438;SDS011;5176;42.622;25.386;2023-03-14T04:28:01;12.80;;;10.93;;
9438;SDS011;5176;42.622;25.386;2023-03-14T04:30:30;13.10;;;10.70;;
9438;SDS011;5176;42.622;25.386;2023-03-14T04:32:59;12.30;;;10.17;;
9438;SDS011;5176;42.622;25.386;2023-03-14T04:35:31;13.97;;;10.70;;
9438;SDS011;5176;42.622;25.386;2023-03-14T04:38:00;15.30;;;11.23;;
9438;SDS011;5176;42.622;25.386;2023-03-14T04:40:29;14.50;;;11.50;;
9438;SDS011;5176;42.622;25.386;2023-03-14T04:42:58;11.93;;;10.47;;
9438;SDS011;5176;42.622;25.386;2023-03-14T04:45:28;14.43;;;11.53;;
9438;SDS011;5176;42.622;25.386;2023-03-14T04:47:57;14.57;;;11.93;;
9438;SDS011;5176;42.622;25.386;2023-03-14T04:50:25;17.10;;;11.83;;
9438;SDS011;5176;42.622;25.386;2023-03-14T04:52:57;16.07;;;12.00;;
9438;SDS011;5176;42.622;25.386;2023-03-14T04:55:26;15.30;;;12.70;;
9438;SDS011;5176;42.622;25.386;2023-03-14T04:57:55;20.00;;;12.47;;
9438;SDS011;5176;42.622;25.386;2023-03-14T05:00:24;44.63;;;30.47;;
9438;SDS011;5176;42.622;25.386;2023-03-14T05:02:53;187.67;;;103.60;;
9438;SDS011;5176;42.622;25.386;2023-03-14T05:05:22;87.67;;;49.23;;
9438;SDS011;5176;42.622;25.386;2023-03-14T05:07:51;29.93;;;18.90;;
9438;SDS011;5176;42.622;25.386;2023-03-14T05:10:21;25.03;;;18.13;;
9438;SDS011;5176;42.622;25.386;2023-03-14T05:12:50;28.03;;;20.63;;
9438;SDS011;5176;42.622;25.386;2023-03-14T05:15:20;27.67;;;20.17;;
9438;SDS011;5176;42.622;25.386;2023-03-14T05:17:49;23.10;;;18.20;;
9438;SDS011;5176;42.622;25.386;2023-03-14T05:20:18;35.70;;;23.30;;
9438;SDS011;5176;42.622;25.386;2023-03-14T05:22:48;52.90;;;31.13;;
9438;SDS011;5176;42.622;25.386;2023-03-14T05:25:18;37.27;;;24.97;;
9438;SDS011;5176;42.622;25.386;2023-03-14T05:27:50;45.77;;;29.43;;
9438;SDS011;5176;42.622;25.386;2023-03-14T05:30:22;67.03;;;40.03;;
9438;SDS011;5176;42.622;25.386;2023-03-14T05:32:52;83.57;;;49.07;;
9438;SDS011;5176;42.622;25.386;2023-03-14T05:35:21;50.13;;;32.20;;
9438;SDS011;5176;42.622;25.386;2023-03-14T05:37:50;34.37;;;19.00;;
9438;SDS011;5176;42.622;25.386;2023-03-14T05:40:19;30.57;;;20.90;;
9438;SDS011;5176;42.622;25.386;2023-03-14T05:42:50;23.07;;;15.47;;
9438;SDS011;5176;42.622;25.386;2023-03-14T05:45:19;15.93;;;13.13;;
9438;SDS011;5176;42.622;25.386;2023-03-14T05:47:49;22.47;;;15.10;;
9438;SDS011;5176;42.622;25.386;2023-03-14T05:50:18;20.40;;;12.57;;
9438;SDS011;5176;42.622;25.386;2023-03-14T05:52:47;20.57;;;12.77;;
9438;SDS011;5176;42.622;25.386;2023-03-14T05:55:16;17.63;;;12.40;;
9438;SDS011;5176;42.622;25.386;2023-03-14T05:57:45;17.83;;;14.20;;
9438;SDS011;5176;42.622;25.386;2023-03-14T06:00:16;16.73;;;11.73;;
9438;SDS011;5176;42.622;25.386;2023-03-14T06:02:45;21.43;;;12.83;;
9438;SDS011;5176;42.622;25.386;2023-03-14T06:05:15;15.23;;;11.80;;
9438;SDS011;5176;42.622;25.386;2023-03-14T06:07:44;17.77;;;13.90;;
9438;SDS011;5176;42.622;25.386;2023-03-14T06:10:13;18.47;;;15.00;;
9438;SDS011;5176;42.622;25.386;2023-03-14T06:12:42;16.80;;;14.20;;
9438;SDS011;5176;42.622;25.386;2023-03-14T06:15:13;17.87;;;13.07;;
9438;SDS011;5176;42.622;25.386;2023-03-14T06:17:44;14.47;;;12.47;;
9438;SDS011;5176;42.622;25.386;2023-03-14T06:20:13;22.97;;;18.43;;
9438;SDS011;5176;42.622;25.386;2023-03-14T06:22:42;23.00;;;19.20;;
9438;SDS011;5176;42.622;25.386;2023-03-14T06:25:12;14.17;;;12.30;;
9438;SDS011;5176;42.622;25.386;2023-03-14T06:27:40;13.93;;;12.23;;
9438;SDS011;5176;42.622;25.386;2023-03-14T06:30:10;15.30;;;13.10;;
9438;SDS011;5176;42.622;25.386;2023-03-14T06:32:40;13.20;;;11.80;;
9438;SDS011;5176;42.622;25.386;2023-03-14T06:35:09;13.93;;;12.53;;
9438;SDS011;5176;42.622;25.386;2023-03-14T06:37:38;14.20;;;12.20;;
9438;SDS011;5176;42.622;25.386;2023-03-14T06:40:08;16.57;;;13.47;;
9438;SDS011;5176;42.622;25.386;2023-03-14T06:42:38;12.93;;;11.23;;
9438;SDS011;5176;42.622;25.386;2023-03-14T06:45:08;15.10;;;11.77;;
9438;SDS011;5176;42.622;25.386;2023-03-14T06:47:37;13.00;;;11.30;;
9438;SDS011;5176;42.622;25.386;2023-03-14T06:50:09;13.80;;;10.73;;
9438;SDS011;5176;42.622;25.386;2023-03-14T06:52:39;13.87;;;10.83;;
9438;SDS011;5176;42.622;25.386;2023-03-14T06:55:14;10.00;;;8.97;;
9438;SDS011;5176;42.622;25.386;2023-03-14T06:57:44;11.47;;;10.00;;
9438;SDS011;5176;42.622;25.386;2023-03-14T07:00:13;7.07;;;6.30;;
9438;SDS011;5176;42.622;25.386;2023-03-14T07:02:45;7.70;;;6.13;;
9438;SDS011;5176;42.622;25.386;2023-03-14T07:05:14;5.97;;;5.00;;
9438;SDS011;5176;42.622;25.386;2023-03-14T07:07:44;7.53;;;4.30;;
9438;SDS011;5176;42.622;25.386;2023-03-14T07:10:13;6.73;;;4.50;;
9438;SDS011;5176;42.622;25.386;2023-03-14T07:12:42;15.83;;;11.50;;
9438;SDS011;5176;42.622;25.386;2023-03-14T07:15:13;8.37;;;6.40;;
9438;SDS011;5176;42.622;25.386;2023-03-14T07:17:43;6.57;;;4.97;;
9438;SDS011;5176;42.622;25.386;2023-03-14T07:20:14;8.77;;;7.20;;
9438;SDS011;5176;42.622;25.386;2023-03-14T07:22:46;5.90;;;5.30;;
9438;SDS011;5176;42.622;25.386;2023-03-14T07:25:16;5.37;;;4.87;;
9438;SDS011;5176;42.622;25.386;2023-03-14T07:27:46;4.07;;;3.67;;
9438;SDS011;5176;42.622;25.386;2023-03-14T07:30:15;4.13;;;3.73;;
9438;SDS011;5176;42.622;25.386;2023-03-14T07:32:46;4.10;;;3.70;;
9438;SDS011;5176;42.622;25.386;2023-03-14T07:35:15;5.13;;;4.63;;
9438;SDS011;5176;42.622;25.386;2023-03-14T07:37:44;6.17;;;5.57;;
9438;SDS011;5176;42.622;25.386;2023-03-14T07:40:14;4.03;;;3.63;;
9438;SDS011;5176;42.622;25.386;2023-03-14T07:42:43;7.80;;;7.10;;
9438;SDS011;5176;42.622;25.386;2023-03-14T07:45:13;5.40;;;3.30;;
9438;SDS011;5176;42.622;25.386;2023-03-14T07:47:42;6.60;;;4.07;;
9438;SDS011;5176;42.622;25.386;2023-03-14T07:50:13;3.13;;;2.83;;
9438;SDS011;5176;42.622;25.386;2023-03-14T07:52:43;3.70;;;3.40;;
9438;SDS011;5176;42.622;25.386;2023-03-14T07:55:12;3.87;;;3.40;;
9438;SDS011;5176;42.622;25.386;2023-03-14T07:57:42;5.23;;;4.30;;
9438;SDS011;5176;42.622;25.386;2023-03-14T08:00:11;3.90;;;3.57;;
9438;SDS011;5176;42.622;25.386;2023-03-14T08:02:42;8.60;;;5.33;;
9438;SDS011;5176;42.622;25.386;2023-03-14T08:05:11;7.13;;;3.83;;
9438;SDS011;5176;42.622;25.386;2023-03-14T08:07:41;6.87;;;4.13;;
9438;SDS011;5176;42.622;25.386;2023-03-14T08:10:11;3.50;;;3.10;;
9438;SDS011;5176;42.622;25.386;2023-03-14T08:12:47;3.23;;;3.00;;
9438;SDS011;5176;42.622;25.386;2023-03-14T08:15:18;4.93;;;4.00;;
9438;SDS011;5176;42.622;25.386;2023-03-14T08:17:47;4.43;;;4.00;;
9438;SDS011;5176;42.622;25.386;2023-03-14T08:20:20;3.83;;;3.53;;
9438;SDS011;5176;42.622;25.386;2023-03-14T08:22:50;3.77;;;3.47;;
9438;SDS011;5176;42.622;25.386;2023-03-14T08:25:19;4.37;;;3.60;;
9438;SDS011;5176;42.622;25.386;2023-03-14T08:27:49;4.13;;;3.67;;
9438;SDS011;5176;42.622;25.386;2023-03-14T08:30:18;3.47;;;3.07;;
9438;SDS011;5176;42.622;25.386;2023-03-14T08:32:48;2.67;;;2.47;;
9438;SDS011;5176;42.622;25.386;2023-03-14T08:35:19;2.70;;;2.50;;
9438;SDS011;5176;42.622;25.386;2023-03-14T08:37:48;3.30;;;3.00;;
9438;SDS011;5176;42.622;25.386;2023-03-14T08:40:19;3.90;;;3.47;;
9438;SDS011;5176;42.622;25.386;2023-03-14T08:42:47;8.07;;;4.10;;
9438;SDS011;5176;42.622;25.386;2023-03-14T08:45:17;7.83;;;4.67;;
9438;SDS011;5176;42.622;25.386;2023-03-14T08:47:46;2.70;;;2.50;;
9438;SDS011;5176;42.622;25.386;2023-03-14T08:50:15;3.93;;;2.93;;
9438;SDS011;5176;42.622;25.386;2023-03-14T08:52:46;5.13;;;4.23;;
9438;SDS011;5176;42.622;25.386;2023-03-14T08:55:15;2.90;;;2.60;;
9438;SDS011;5176;42.622;25.386;2023-03-14T08:57:43;3.13;;;2.90;;
9438;SDS011;5176;42.622;25.386;2023-03-14T09:00:12;2.77;;;2.53;;
9438;SDS011;5176;42.622;25.386;2023-03-14T09:02:43;2.83;;;2.43;;
9438;SDS011;5176;42.622;25.386;2023-03-14T09:05:12;2.57;;;2.37;;
9438;SDS011;5176;42.622;25.386;2023-03-14T09:07:42;3.27;;;2.30;;
9438;SDS011;5176;42.622;25.386;2023-03-14T09:10:13;2.97;;;2.43;;
9438;SDS011;5176;42.622;25.386;2023-03-14T09:12:42;8.53;;;2.77;;
9438;SDS011;5176;42.622;25.386;2023-03-14T09:15:12;2.50;;;2.30;;
9438;SDS011;5176;42.622;25.386;2023-03-14T09:17:42;2.97;;;2.63;;
9438;SDS011;5176;42.622;25.386;2023-03-14T09:20:11;3.70;;;2.50;;
9438;SDS011;5176;42.622;25.386;2023-03-14T09:22:41;3.20;;;2.90;;
9438;SDS011;5176;42.622;25.386;2023-03-14T09:25:12;7.50;;;3.80;;
9438;SDS011;5176;42.622;25.386;2023-03-14T09:27:41;4.73;;;3.53;;
9438;SDS011;5176;42.622;25.386;2023-03-14T09:30:11;6.03;;;4.20;;
9438;SDS011;5176;42.622;25.386;2023-03-14T09:32:40;4.07;;;2.47;;
9438;SDS011;5176;42.622;25.386;2023-03-14T09:35:09;4.57;;;3.40;;
9438;SDS011;5176;42.622;25.386;2023-03-14T09:37:38;3.23;;;2.80;;
9438;SDS011;5176;42.622;25.386;2023-03-14T09:40:10;3.63;;;3.33;;
9438;SDS011;5176;42.622;25.386;2023-03-14T09:42:43;4.97;;;3.40;;
9438;SDS011;5176;42.622;25.386;2023-03-14T09:45:23;2.60;;;2.40;;
9438;SDS011;5176;42.622;25.386;2023-03-14T09:47:58;3.83;;;3.50;;
9438;SDS011;5176;42.622;25.386;2023-03-14T09:50:30;4.67;;;4.23;;
9438;SDS011;5176;42.622;25.386;2023-03-14T09:53:07;11.80;;;3.63;;
9438;SDS011;5176;42.622;25.386;2023-03-14T09:55:42;7.90;;;3.53;;
9438;SDS011;5176;42.622;25.386;2023-03-14T09:58:13;3.50;;;3.20;;
9438;SDS011;5176;42.622;25.386;2023-03-14T10:00:45;7.53;;;4.33;;
9438;SDS011;5176;42.622;25.386;2023-03-14T10:03:20;3.97;;;2.60;;
9438;SDS011;5176;42.622;25.386;2023-03-14T10:05:52;5.83;;;2.80;;
9438;SDS011;5176;42.622;25.386;2023-03-14T10:08:23;5.93;;;3.00;;
9438;SDS011;5176;42.622;25.386;2023-03-14T10:10:54;6.80;;;2.83;;
9438;SDS011;5176;42.622;25.386;2023-03-14T10:13:23;5.70;;;3.10;;
9438;SDS011;5176;42.622;25.386;2023-03-14T10:15:58;2.90;;;2.60;;
9438;SDS011;5176;42.622;25.386;2023-03-14T10:18:30;3.10;;;2.70;;
9438;SDS011;5176;42.622;25.386;2023-03-14T10:21:02;3.20;;;2.83;;
9438;SDS011;5176;42.622;25.386;2023-03-14T10:23:33;6.10;;;2.97;;
9438;SDS011;5176;42.622;25.386;2023-03-14T10:26:07;4.27;;;2.93;;
9438;SDS011;5176;42.622;25.386;2023-03-14T10:28:42;3.30;;;2.80;;
9438;SDS011;5176;42.622;25.386;2023-03-14T10:31:13;7.00;;;3.20;;
9438;SDS011;5176;42.622;25.386;2023-03-14T10:33:43;3.83;;;2.77;;
9438;SDS011;5176;42.622;25.386;2023-03-14T10:36:27;3.80;;;2.93;;
9438;SDS011;5176;42.622;25.386;2023-03-14T10:38:57;6.50;;;2.90;;
9438;SDS011;5176;42.622;25.386;2023-03-14T10:41:48;4.00;;;3.30;;
9438;SDS011;5176;42.622;25.386;2023-03-14T10:44:21;3.70;;;3.40;;
9438;SDS011;5176;42.622;25.386;2023-03-14T10:46:55;3.45;;;3.08;;
9438;SDS011;5176;42.622;25.386;2023-03-14T10:49:27;3.47;;;3.17;;
9438;SDS011;5176;42.622;25.386;2023-03-14T10:52:00;2.80;;;2.60;;
9438;SDS011;5176;42.622;25.386;2023-03-14T10:54:30;4.70;;;3.45;;
9438;SDS011;5176;42.622;25.386;2023-03-14T10:57:01;5.88;;;2.88;;
9438;SDS011;5176;42.622;25.386;2023-03-14T10:59:34;5.88;;;2.92;;
9438;SDS011;5176;42.622;25.386;2023-03-14T11:02:07;4.50;;;2.90;;
9438;SDS011;5176;42.622;25.386;2023-03-14T11:05:03;3.58;;;2.63;;
9438;SDS011;5176;42.622;25.386;2023-03-14T11:07:44;2.78;;;2.58;;
9438;SDS011;5176;42.622;25.386;2023-03-14T11:10:18;3.95;;;2.72;;
9438;SDS011;5176;42.622;25.386;2023-03-14T11:12:57;3.00;;;2.70;;
9438;SDS011;5176;42.622;25.386;2023-03-14T11:15:35;5.32;;;2.53;;
9438;SDS011;5176;42.622;25.386;2023-03-14T11:18:20;2.80;;;2.55;;
9438;SDS011;5176;42.622;25.386;2023-03-14T11:21:26;2.78;;;2.58;;
9438;SDS011;5176;42.622;25.386;2023-03-14T11:24:06;4.55;;;2.17;;
9438;SDS011;5176;42.622;25.386;2023-03-14T11:26:52;6.55;;;2.70;;
9438;SDS011;5176;42.622;25.386;2023-03-14T11:29:33;2.60;;;2.38;;
9438;SDS011;5176;42.622;25.386;2023-03-14T11:32:12;2.92;;;2.72;;
9438;SDS011;5176;42.622;25.386;2023-03-14T11:34:47;2.75;;;2.50;;
9438;SDS011;5176;42.622;25.386;2023-03-14T11:37:23;2.50;;;2.30;;
9438;SDS011;5176;42.622;25.386;2023-03-14T11:39:59;3.05;;;2.28;;
9438;SDS011;5176;42.622;25.386;2023-03-14T11:42:37;2.40;;;2.20;;
9438;SDS011;5176;42.622;25.386;2023-03-14T11:45:14;4.00;;;3.00;;
9438;SDS011;5176;42.622;25.386;2023-03-14T11:47:48;2.80;;;2.50;;
9438;SDS011;5176;42.622;25.386;2023-03-14T11:50:23;2.35;;;2.15;;
9438;SDS011;5176;42.622;25.386;2023-03-14T11:52:55;2.55;;;2.20;;
9438;SDS011;5176;42.622;25.386;2023-03-14T11:55:30;3.08;;;2.35;;
9438;SDS011;5176;42.622;25.386;2023-03-14T11:58:01;3.40;;;3.10;;
9438;SDS011;5176;42.622;25.386;2023-03-14T12:00:41;2.90;;;2.30;;
9438;SDS011;5176;42.622;25.386;2023-03-14T12:03:14;3.17;;;2.63;;
9438;SDS011;5176;42.622;25.386;2023-03-14T12:05:54;4.57;;;2.33;;
9438;SDS011;5176;42.622;25.386;2023-03-14T12:08:44;3.10;;;2.17;;
9438;SDS011;5176;42.622;25.386;2023-03-14T12:11:19;2.72;;;2.22;;
9438;SDS011;5176;42.622;25.386;2023-03-14T12:13:51;3.42;;;2.65;;
9438;SDS011;5176;42.622;25.386;2023-03-14T12:16:30;2.80;;;2.55;;
9438;SDS011;5176;42.622;25.386;2023-03-14T12:25:16;8.45;;;3.92;;
9438;SDS011;5176;42.622;25.386;2023-03-14T12:27:49;3.70;;;2.65;;
9438;SDS011;5176;42.622;25.386;2023-03-14T12:30:33;3.20;;;2.65;;
9438;SDS011;5176;42.622;25.386;2023-03-14T12:36:18;3.17;;;2.53;;
9438;SDS011;5176;42.622;25.386;2023-03-14T12:39:28;3.33;;;2.50;;
9438;SDS011;5176;42.622;25.386;2023-03-14T12:42:04;4.70;;;2.60;;
9438;SDS011;5176;42.622;25.386;2023-03-14T12:44:39;2.83;;;2.58;;
9438;SDS011;5176;42.622;25.386;2023-03-14T12:50:24;3.08;;;2.20;;
9438;SDS011;5176;42.622;25.386;2023-03-14T12:53:04;3.53;;;2.92;;
9438;SDS011;5176;42.622;25.386;2023-03-14T12:55:51;6.05;;;3.50;;
9438;SDS011;5176;42.622;25.386;2023-03-14T12:58:32;4.80;;;3.00;;
9438;SDS011;5176;42.622;25.386;2023-03-14T13:01:07;4.38;;;3.55;;
9438;SDS011;5176;42.622;25.386;2023-03-14T13:03:45;3.80;;;3.50;;
9438;SDS011;5176;42.622;25.386;2023-03-14T13:12:23;3.90;;;2.42;;
9438;SDS011;5176;42.622;25.386;2023-03-14T13:15:00;2.25;;;2.08;;
9438;SDS011;5176;42.622;25.386;2023-03-14T13:17:32;3.78;;;2.00;;
9438;SDS011;5176;42.622;25.386;2023-03-14T13:20:03;5.97;;;3.28;;
9438;SDS011;5176;42.622;25.386;2023-03-14T13:22:47;2.72;;;2.47;;
9438;SDS011;5176;42.622;25.386;2023-03-14T13:25:18;3.03;;;2.50;;
9438;SDS011;5176;42.622;25.386;2023-03-14T13:27:48;2.03;;;1.83;;
9438;SDS011;5176;42.622;25.386;2023-03-14T13:30:22;1.80;;;1.70;;
9438;SDS011;5176;42.622;25.386;2023-03-14T13:32:53;2.53;;;1.98;;
9438;SDS011;5176;42.622;25.386;2023-03-14T13:35:22;2.38;;;2.17;;
9438;SDS011;5176;42.622;25.386;2023-03-14T13:37:57;2.78;;;2.58;;
9438;SDS011;5176;42.622;25.386;2023-03-14T13:40:30;6.15;;;5.40;;
9438;SDS011;5176;42.622;25.386;2023-03-14T13:43:04;14.23;;;10.18;;
9438;SDS011;5176;42.622;25.386;2023-03-14T13:45:41;5.43;;;3.67;;
9438;SDS011;5176;42.622;25.386;2023-03-14T13:48:12;9.27;;;6.60;;
9438;SDS011;5176;42.622;25.386;2023-03-14T13:50:49;2.83;;;2.20;;
9438;SDS011;5176;42.622;25.386;2023-03-14T13:53:21;3.97;;;3.67;;
9438;SDS011;5176;42.622;25.386;2023-03-14T13:55:50;2.72;;;2.42;;
9438;SDS011;5176;42.622;25.386;2023-03-14T13:58:25;3.72;;;3.13;;
9438;SDS011;5176;42.622;25.386;2023-03-14T14:01:01;8.35;;;6.80;;
9438;SDS011;5176;42.622;25.386;2023-03-14T14:03:33;6.90;;;3.55;;
9438;SDS011;5176;42.622;25.386;2023-03-14T14:06:07;5.15;;;3.88;;
9438;SDS011;5176;42.622;25.386;2023-03-14T14:08:46;4.88;;;3.72;;
9438;SDS011;5176;42.622;25.386;2023-03-14T14:11:18;3.10;;;2.90;;
9438;SDS011;5176;42.622;25.386;2023-03-14T14:13:52;5.53;;;3.92;;
9438;SDS011;5176;42.622;25.386;2023-03-14T14:16:21;4.30;;;2.28;;
9438;SDS011;5176;42.622;25.386;2023-03-14T14:18:56;3.90;;;3.53;;
9438;SDS011;5176;42.622;25.386;2023-03-14T14:21:26;3.38;;;2.83;;
9438;SDS011;5176;42.622;25.386;2023-03-14T14:23:57;3.78;;;2.67;;
9438;SDS011;5176;42.622;25.386;2023-03-14T14:26:27;7.47;;;5.07;;
9438;SDS011;5176;42.622;25.386;2023-03-14T14:29:02;7.20;;;5.37;;
9438;SDS011;5176;42.622;25.386;2023-03-14T14:31:33;3.20;;;2.90;;
9438;SDS011;5176;42.622;25.386;2023-03-14T14:34:02;4.60;;;3.77;;
9438;SDS011;5176;42.622;25.386;2023-03-14T14:36:32;3.53;;;2.97;;
9438;SDS011;5176;42.622;25.386;2023-03-14T14:39:09;5.97;;;3.03;;
9438;SDS011;5176;42.622;25.386;2023-03-14T14:41:44;5.53;;;3.60;;
9438;SDS011;5176;42.622;25.386;2023-03-14T14:44:16;4.23;;;3.40;;
9438;SDS011;5176;42.622;25.386;2023-03-14T14:46:48;6.77;;;3.10;;
9438;SDS011;5176;42.622;25.386;2023-03-14T14:49:18;4.83;;;2.83;;
9438;SDS011;5176;42.622;25.386;2023-03-14T14:51:48;3.53;;;3.03;;
9438;SDS011;5176;42.622;25.386;2023-03-14T14:54:32;3.00;;;2.70;;
9438;SDS011;5176;42.622;25.386;2023-03-14T14:57:03;5.23;;;3.37;;
9438;SDS011;5176;42.622;25.386;2023-03-14T14:59:32;5.80;;;4.00;;
9438;SDS011;5176;42.622;25.386;2023-03-14T15:02:17;3.73;;;2.83;;
9438;SDS011;5176;42.622;25.386;2023-03-14T15:04:59;7.20;;;3.50;;
9438;SDS011;5176;42.622;25.386;2023-03-14T15:07:28;14.80;;;10.33;;
9438;SDS011;5176;42.622;25.386;2023-03-14T15:09:58;13.30;;;8.13;;
9438;SDS011;5176;42.622;25.386;2023-03-14T15:12:27;10.03;;;5.93;;
9438;SDS011;5176;42.622;25.386;2023-03-14T15:14:57;11.13;;;9.40;;
9438;SDS011;5176;42.622;25.386;2023-03-14T15:17:26;5.37;;;3.97;;
9438;SDS011;5176;42.622;25.386;2023-03-14T15:19:55;5.60;;;3.73;;
9438;SDS011;5176;42.622;25.386;2023-03-14T15:22:25;7.27;;;3.10;;
9438;SDS011;5176;42.622;25.386;2023-03-14T15:24:54;9.17;;;4.67;;
9438;SDS011;5176;42.622;25.386;2023-03-14T15:27:24;4.10;;;3.70;;
9438;SDS011;5176;42.622;25.386;2023-03-14T15:29:53;5.00;;;4.47;;
9438;SDS011;5176;42.622;25.386;2023-03-14T15:32:22;8.83;;;4.97;;
9438;SDS011;5176;42.622;25.386;2023-03-14T15:34:51;6.90;;;4.17;;
9438;SDS011;5176;42.622;25.386;2023-03-14T15:37:19;6.57;;;3.60;;
9438;SDS011;5176;42.622;25.386;2023-03-14T15:39:48;9.43;;;6.10;;
9438;SDS011;5176;42.622;25.386;2023-03-14T15:42:17;5.93;;;5.30;;
9438;SDS011;5176;42.622;25.386;2023-03-14T15:44:48;6.50;;;4.50;;